Bf Caroda — V2CV5 — position and weather

sailwx.info

Track history (hours):
 
Tides and Currents Weather Stations Pressure Air Temp Water Temp Dewpoint Dewpoint Depression Visibility Wind Speed Wind Dir Waves Ship Positions

Bf Caroda

Last reported at 2015-Jul-30 22:33 UTC. Time now 2015-Jul-30 23:01 UTC.
Position N 43°41' E 007°55'.

Length 134 m; draft 7.5 m.

Type: Ship (hazmat cat A). MMSI: 304678000.

Date/timePositionNaut miles runAvg speedWind from/ knotsBaromVisibWave heightAir tempDewpointWater temp
2015-Jul-30 22:33N 43°41' E 007°55'1615.5
2015-Jul-30 21:33N 43°49' E 008°13'1615.8
2015-Jul-30 20:33N 43°60' E 008°29'1615.7
2015-Jul-30 19:34N 44°11' E 008°45'1514.5
2015-Jul-30 18:33N 44°23' E 008°56'2 2.0
2015-Jul-30 17:31N 44°24' E 008°54'0 0.0
2015-Jul-30 16:33N 44°24' E 008°54'0 0.0
2015-Jul-30 15:33N 44°24' E 008°54'0 0.0
2015-Jul-30 14:26N 44°24' E 008°54'0 0.0
2015-Jul-30 13:32N 44°24' E 008°54'0 0.0
2015-Jul-30 12:32N 44°24' E 008°54'0 0.0
2015-Jul-30 11:31N 44°24' E 008°54'0 0.0
2015-Jul-30 10:31N 44°24' E 008°54'0 0.0
2015-Jul-30 09:33N 44°24' E 008°54'0 0.0
2015-Jul-30 08:33N 44°24' E 008°54'0 0.0
2015-Jul-30 07:32N 44°24' E 008°54'0 0.0
2015-Jul-30 06:32N 44°24' E 008°54'0 0.0
2015-Jul-30 05:31N 44°24' E 008°54'0 0.0
2015-Jul-30 04:31N 44°24' E 008°54'0 0.0
2015-Jul-30 03:31N 44°24' E 008°54'0 0.0
2015-Jul-30 02:30N 44°24' E 008°54'0 0.0
2015-Jul-30 01:33N 44°24' E 008°54'0 0.0
2015-Jul-30 00:29N 44°24' E 008°54'3 3.2
2015-Jul-29 23:34N 44°22' E 008°57'1716.9
2015-Jul-29 22:34N 44°09' E 009°12'1616.2
2015-Jul-29 21:34N 43°60' E 009°31'1413.6
2015-Jul-29 20:34N 43°59' E 009°50'7 7.2
2015-Jul-29 19:31N 44°06' E 009°51'0 0.0
2015-Jul-29 18:28N 44°06' E 009°51'0 0.0
2015-Jul-29 17:33N 44°06' E 009°51'0 0.0
2015-Jul-29 16:33N 44°06' E 009°51'0 0.0
2015-Jul-29 15:32N 44°06' E 009°51'0 0.0
2015-Jul-29 14:32N 44°06' E 009°51'0 0.0
2015-Jul-29 13:31N 44°06' E 009°51'0 0.0
2015-Jul-29 12:31N 44°06' E 009°51'0 0.0
2015-Jul-29 11:31N 44°06' E 009°51'0 0.0
2015-Jul-29 10:30N 44°06' E 009°51'0 0.0
2015-Jul-29 09:33N 44°06' E 009°51'0 0.0
2015-Jul-29 08:32N 44°06' E 009°51'0 0.0
2015-Jul-29 07:32N 44°06' E 009°51'0 0.0
2015-Jul-29 06:31N 44°06' E 009°51'0 0.0
2015-Jul-29 05:31N 44°06' E 009°51'0 0.0
2015-Jul-29 04:33N 44°06' E 009°51'4 4.5
2015-Jul-29 03:33N 44°02' E 009°53'1313.1
2015-Jul-29 02:33N 43°54' E 010°07'1211.6
2015-Jul-29 01:33N 43°45' E 009°56'1313.3
2015-Jul-29 00:33N 43°37' E 009°41'1313.2
2015-Jul-28 23:33N 43°29' E 009°27'1313.0
2015-Jul-28 22:34N 43°20' E 009°13'1313.0
2015-Jul-28 21:33N 43°12' E 008°60'  
2015-Jul-25 14:08N 36°55' E 007°49'0 0.0
2015-Jul-25 13:32N 36°55' E 007°49'0 0.0
2015-Jul-25 12:32N 36°55' E 007°49'0 0.0
2015-Jul-25 08:15N 36°55' E 007°49'194 5.1
2015-Jul-23 18:22N 36°58' E 003°46'36 1.8
2015-Jul-22 22:20N 36°46' E 003°04'0 0.0
2015-Jul-22 21:14N 36°46' E 003°04'0 0.0
2015-Jul-22 20:32N 36°46' E 003°04'0 0.0
2015-Jul-22 19:31N 36°46' E 003°04'0 0.0
2015-Jul-22 18:31N 36°46' E 003°04'0 0.0
2015-Jul-22 16:33N 36°46' E 003°04'0 0.0
2015-Jul-22 14:08N 36°46' E 003°04'0 0.0
2015-Jul-22 13:19N 36°46' E 003°04'0 0.0
2015-Jul-22 11:09N 36°46' E 003°04'0 0.0
2015-Jul-22 09:30N 36°46' E 003°04'0 0.0
2015-Jul-22 06:31N 36°46' E 003°04'0 0.0
2015-Jul-22 05:25N 36°46' E 003°04'0 0.0
2015-Jul-22 02:33N 36°46' E 003°04'0 0.0
2015-Jul-21 20:03N 36°46' E 003°04'0 0.0
2015-Jul-21 19:27N 36°46' E 003°04'  
Track history (hours):
 
Tides and Currents Weather Stations Pressure Air Temp Water Temp Dewpoint Dewpoint Depression Visibility Wind Speed Wind Dir Waves Ship Positions

Bf Caroda

Last reported at 2015-Jul-30 22:33 UTC. Time now 2015-Jul-30 23:01 UTC.
Position N 43°41' E 007°55'.

Length 134 m; draft 7.5 m.

Type: Ship (hazmat cat A). MMSI: 304678000.

Date/timePositionNaut miles runAvg speedWind from/ knotsBaromVisibWave heightAir tempDewpointWater temp
2015-Jul-30 22:33N 43°41' E 007°55'1615.5
2015-Jul-30 21:33N 43°49' E 008°13'1615.8
2015-Jul-30 20:33N 43°60' E 008°29'1615.7
2015-Jul-30 19:34N 44°11' E 008°45'1514.5
2015-Jul-30 18:33N 44°23' E 008°56'2 2.0
2015-Jul-30 17:31N 44°24' E 008°54'0 0.0
2015-Jul-30 16:33N 44°24' E 008°54'0 0.0
2015-Jul-30 15:33N 44°24' E 008°54'0 0.0
2015-Jul-30 14:26N 44°24' E 008°54'0 0.0
2015-Jul-30 13:32N 44°24' E 008°54'0 0.0
2015-Jul-30 12:32N 44°24' E 008°54'0 0.0
2015-Jul-30 11:31N 44°24' E 008°54'0 0.0
2015-Jul-30 10:31N 44°24' E 008°54'0 0.0
2015-Jul-30 09:33N 44°24' E 008°54'0 0.0
2015-Jul-30 08:33N 44°24' E 008°54'0 0.0
2015-Jul-30 07:32N 44°24' E 008°54'0 0.0
2015-Jul-30 06:32N 44°24' E 008°54'0 0.0
2015-Jul-30 05:31N 44°24' E 008°54'0 0.0
2015-Jul-30 04:31N 44°24' E 008°54'0 0.0
2015-Jul-30 03:31N 44°24' E 008°54'0 0.0
2015-Jul-30 02:30N 44°24' E 008°54'0 0.0
2015-Jul-30 01:33N 44°24' E 008°54'0 0.0
2015-Jul-30 00:29N 44°24' E 008°54'3 3.2
2015-Jul-29 23:34N 44°22' E 008°57'1716.9
2015-Jul-29 22:34N 44°09' E 009°12'1616.2
2015-Jul-29 21:34N 43°60' E 009°31'1413.6
2015-Jul-29 20:34N 43°59' E 009°50'7 7.2
2015-Jul-29 19:31N 44°06' E 009°51'0 0.0
2015-Jul-29 18:28N 44°06' E 009°51'0 0.0
2015-Jul-29 17:33N 44°06' E 009°51'0 0.0
2015-Jul-29 16:33N 44°06' E 009°51'0 0.0
2015-Jul-29 15:32N 44°06' E 009°51'0 0.0
2015-Jul-29 14:32N 44°06' E 009°51'0 0.0
2015-Jul-29 13:31N 44°06' E 009°51'0 0.0
2015-Jul-29 12:31N 44°06' E 009°51'0 0.0
2015-Jul-29 11:31N 44°06' E 009°51'0 0.0
2015-Jul-29 10:30N 44°06' E 009°51'0 0.0
2015-Jul-29 09:33N 44°06' E 009°51'0 0.0
2015-Jul-29 08:32N 44°06' E 009°51'0 0.0
2015-Jul-29 07:32N 44°06' E 009°51'0 0.0
2015-Jul-29 06:31N 44°06' E 009°51'0 0.0
2015-Jul-29 05:31N 44°06' E 009°51'0 0.0
2015-Jul-29 04:33N 44°06' E 009°51'4 4.5
2015-Jul-29 03:33N 44°02' E 009°53'1313.1
2015-Jul-29 02:33N 43°54' E 010°07'1211.6
2015-Jul-29 01:33N 43°45' E 009°56'1313.3
2015-Jul-29 00:33N 43°37' E 009°41'1313.2
2015-Jul-28 23:33N 43°29' E 009°27'1313.0
2015-Jul-28 22:34N 43°20' E 009°13'1313.0
2015-Jul-28 21:33N 43°12' E 008°60'  
2015-Jul-25 14:08N 36°55' E 007°49'0 0.0
2015-Jul-25 13:32N 36°55' E 007°49'0 0.0
2015-Jul-25 12:32N 36°55' E 007°49'0 0.0
2015-Jul-25 08:15N 36°55' E 007°49'194 5.1
2015-Jul-23 18:22N 36°58' E 003°46'36 1.8
2015-Jul-22 22:20N 36°46' E 003°04'0 0.0
2015-Jul-22 21:14N 36°46' E 003°04'0 0.0
2015-Jul-22 20:32N 36°46' E 003°04'0 0.0
2015-Jul-22 19:31N 36°46' E 003°04'0 0.0
2015-Jul-22 18:31N 36°46' E 003°04'0 0.0
2015-Jul-22 16:33N 36°46' E 003°04'0 0.0
2015-Jul-22 14:08N 36°46' E 003°04'0 0.0
2015-Jul-22 13:19N 36°46' E 003°04'0 0.0
2015-Jul-22 11:09N 36°46' E 003°04'0 0.0
2015-Jul-22 09:30N 36°46' E 003°04'0 0.0
2015-Jul-22 06:31N 36°46' E 003°04'0 0.0
2015-Jul-22 05:25N 36°46' E 003°04'0 0.0
2015-Jul-22 02:33N 36°46' E 003°04'0 0.0
2015-Jul-21 20:03N 36°46' E 003°04'0 0.0
2015-Jul-21 19:27N 36°46' E 003°04'  

Dump ship's entire track history